sensor_id;sensor_type;location;lat;lon;timestamp;P1;durP1;ratioP1;P2;durP2;ratioP2
3875;SDS011;1953;51.222;6.624;2023-10-08T00:00:46;9.57;;;4.90;;
3875;SDS011;1953;51.222;6.624;2023-10-08T00:05:34;10.63;;;5.20;;
3875;SDS011;1953;51.222;6.624;2023-10-08T00:10:17;9.77;;;5.20;;
3875;SDS011;1953;51.222;6.624;2023-10-08T00:18:56;8.70;;;5.33;;
3875;SDS011;1953;51.222;6.624;2023-10-08T00:23:43;12.97;;;5.43;;
3875;SDS011;1953;51.222;6.624;2023-10-08T00:28:32;11.97;;;5.10;;
3875;SDS011;1953;51.222;6.624;2023-10-08T00:33:15;9.87;;;5.43;;
3875;SDS011;1953;51.222;6.624;2023-10-08T00:37:59;10.00;;;5.60;;
3875;SDS011;1953;51.222;6.624;2023-10-08T00:42:45;11.03;;;5.60;;
3875;SDS011;1953;51.222;6.624;2023-10-08T00:47:28;12.10;;;5.97;;
3875;SDS011;1953;51.222;6.624;2023-10-08T00:52:15;10.37;;;5.73;;
3875;SDS011;1953;51.222;6.624;2023-10-08T00:57:21;11.30;;;5.80;;
3875;SDS011;1953;51.222;6.624;2023-10-08T01:02:05;11.43;;;5.63;;
3875;SDS011;1953;51.222;6.624;2023-10-08T01:06:51;11.83;;;5.63;;
3875;SDS011;1953;51.222;6.624;2023-10-08T01:11:39;10.00;;;5.77;;
3875;SDS011;1953;51.222;6.624;2023-10-08T01:16:28;14.00;;;5.93;;
3875;SDS011;1953;51.222;6.624;2023-10-08T01:21:14;10.73;;;5.67;;
3875;SDS011;1953;51.222;6.624;2023-10-08T01:26:13;11.67;;;6.23;;
3875;SDS011;1953;51.222;6.624;2023-10-08T01:30:57;13.60;;;5.80;;
3875;SDS011;1953;51.222;6.624;2023-10-08T01:35:41;11.27;;;5.90;;
3875;SDS011;1953;51.222;6.624;2023-10-08T01:40:24;10.60;;;6.23;;
3875;SDS011;1953;51.222;6.624;2023-10-08T01:45:08;9.77;;;5.50;;
3875;SDS011;1953;51.222;6.624;2023-10-08T01:50:00;11.70;;;5.60;;
3875;SDS011;1953;51.222;6.624;2023-10-08T01:54:46;11.17;;;5.80;;
3875;SDS011;1953;51.222;6.624;2023-10-08T01:59:30;12.00;;;5.90;;
3875;SDS011;1953;51.222;6.624;2023-10-08T02:04:15;10.07;;;5.80;;
3875;SDS011;1953;51.222;6.624;2023-10-08T02:08:58;11.53;;;5.20;;
3875;SDS011;1953;51.222;6.624;2023-10-08T02:13:46;10.90;;;5.60;;
3875;SDS011;1953;51.222;6.624;2023-10-08T02:18:28;12.60;;;5.07;;
3875;SDS011;1953;51.222;6.624;2023-10-08T02:23:12;12.63;;;5.60;;
3875;SDS011;1953;51.222;6.624;2023-10-08T02:27:55;16.67;;;6.43;;
3875;SDS011;1953;51.222;6.624;2023-10-08T02:32:38;11.60;;;6.17;;
3875;SDS011;1953;51.222;6.624;2023-10-08T02:37:23;10.63;;;5.60;;
3875;SDS011;1953;51.222;6.624;2023-10-08T02:42:07;13.60;;;6.20;;
3875;SDS011;1953;51.222;6.624;2023-10-08T02:46:51;15.37;;;6.07;;
3875;SDS011;1953;51.222;6.624;2023-10-08T02:51:35;12.20;;;5.77;;
3875;SDS011;1953;51.222;6.624;2023-10-08T02:56:18;11.43;;;5.90;;
3875;SDS011;1953;51.222;6.624;2023-10-08T03:01:04;10.40;;;5.77;;
3875;SDS011;1953;51.222;6.624;2023-10-08T03:05:47;10.23;;;5.80;;
3875;SDS011;1953;51.222;6.624;2023-10-08T03:10:30;9.97;;;5.23;;
3875;SDS011;1953;51.222;6.624;2023-10-08T03:15:14;13.30;;;6.20;;
3875;SDS011;1953;51.222;6.624;2023-10-08T03:20:11;9.37;;;5.40;;
3875;SDS011;1953;51.222;6.624;2023-10-08T03:25:08;10.43;;;5.27;;
3875;SDS011;1953;51.222;6.624;2023-10-08T03:29:56;10.37;;;5.63;;
3875;SDS011;1953;51.222;6.624;2023-10-08T03:34:39;11.23;;;5.20;;
3875;SDS011;1953;51.222;6.624;2023-10-08T03:39:28;11.07;;;5.87;;
3875;SDS011;1953;51.222;6.624;2023-10-08T03:44:30;18.20;;;6.20;;
3875;SDS011;1953;51.222;6.624;2023-10-08T03:49:13;14.50;;;5.30;;
3875;SDS011;1953;51.222;6.624;2023-10-08T03:54:06;9.83;;;5.60;;
3875;SDS011;1953;51.222;6.624;2023-10-08T03:58:57;10.53;;;5.33;;
3875;SDS011;1953;51.222;6.624;2023-10-08T04:03:44;11.10;;;5.67;;
3875;SDS011;1953;51.222;6.624;2023-10-08T04:08:39;13.00;;;5.70;;
3875;SDS011;1953;51.222;6.624;2023-10-08T04:13:24;10.03;;;5.30;;
3875;SDS011;1953;51.222;6.624;2023-10-08T04:18:08;12.80;;;5.80;;
3875;SDS011;1953;51.222;6.624;2023-10-08T04:22:51;8.40;;;5.60;;
3875;SDS011;1953;51.222;6.624;2023-10-08T04:27:35;15.43;;;5.70;;
3875;SDS011;1953;51.222;6.624;2023-10-08T04:32:18;11.40;;;6.00;;
3875;SDS011;1953;51.222;6.624;2023-10-08T04:37:06;12.50;;;5.50;;
3875;SDS011;1953;51.222;6.624;2023-10-08T04:41:53;9.97;;;5.40;;
3875;SDS011;1953;51.222;6.624;2023-10-08T04:46:37;13.57;;;5.43;;
3875;SDS011;1953;51.222;6.624;2023-10-08T04:51:27;13.30;;;5.90;;
3875;SDS011;1953;51.222;6.624;2023-10-08T04:56:16;10.80;;;6.07;;
3875;SDS011;1953;51.222;6.624;2023-10-08T05:00:59;16.60;;;6.53;;
3875;SDS011;1953;51.222;6.624;2023-10-08T05:05:57;13.70;;;5.63;;
3875;SDS011;1953;51.222;6.624;2023-10-08T05:10:49;15.00;;;6.07;;
3875;SDS011;1953;51.222;6.624;2023-10-08T05:16:06;15.77;;;5.67;;
3875;SDS011;1953;51.222;6.624;2023-10-08T05:21:10;14.97;;;5.97;;
3875;SDS011;1953;51.222;6.624;2023-10-08T05:26:06;9.77;;;5.77;;
3875;SDS011;1953;51.222;6.624;2023-10-08T05:31:07;14.93;;;6.33;;
3875;SDS011;1953;51.222;6.624;2023-10-08T05:36:12;10.63;;;5.63;;
3875;SDS011;1953;51.222;6.624;2023-10-08T05:41:00;12.10;;;5.77;;
3875;SDS011;1953;51.222;6.624;2023-10-08T05:45:59;11.20;;;6.40;;
3875;SDS011;1953;51.222;6.624;2023-10-08T05:51:03;12.53;;;5.57;;
3875;SDS011;1953;51.222;6.624;2023-10-08T05:55:54;14.90;;;5.83;;
3875;SDS011;1953;51.222;6.624;2023-10-08T06:00:43;13.30;;;6.30;;
3875;SDS011;1953;51.222;6.624;2023-10-08T06:05:45;12.37;;;5.30;;
3875;SDS011;1953;51.222;6.624;2023-10-08T06:10:45;12.00;;;6.20;;
3875;SDS011;1953;51.222;6.624;2023-10-08T06:15:38;15.60;;;5.57;;
3875;SDS011;1953;51.222;6.624;2023-10-08T06:20:29;11.73;;;5.73;;
3875;SDS011;1953;51.222;6.624;2023-10-08T06:25:11;16.43;;;6.70;;
3875;SDS011;1953;51.222;6.624;2023-10-08T06:30:06;12.57;;;6.73;;
3875;SDS011;1953;51.222;6.624;2023-10-08T06:34:57;13.77;;;8.50;;
3875;SDS011;1953;51.222;6.624;2023-10-08T06:39:43;12.00;;;5.90;;
3875;SDS011;1953;51.222;6.624;2023-10-08T06:44:29;13.90;;;6.80;;
3875;SDS011;1953;51.222;6.624;2023-10-08T06:49:12;13.97;;;6.50;;
3875;SDS011;1953;51.222;6.624;2023-10-08T06:53:56;12.93;;;6.00;;
3875;SDS011;1953;51.222;6.624;2023-10-08T06:58:42;11.93;;;6.33;;
3875;SDS011;1953;51.222;6.624;2023-10-08T07:03:27;17.97;;;6.40;;
3875;SDS011;1953;51.222;6.624;2023-10-08T07:08:12;11.33;;;6.33;;
3875;SDS011;1953;51.222;6.624;2023-10-08T07:12:55;10.93;;;5.67;;
3875;SDS011;1953;51.222;6.624;2023-10-08T07:17:40;15.00;;;6.77;;
3875;SDS011;1953;51.222;6.624;2023-10-08T07:22:23;13.27;;;6.50;;
3875;SDS011;1953;51.222;6.624;2023-10-08T07:27:10;16.10;;;6.90;;
3875;SDS011;1953;51.222;6.624;2023-10-08T07:31:54;13.50;;;6.37;;
3875;SDS011;1953;51.222;6.624;2023-10-08T07:36:36;12.10;;;6.60;;
3875;SDS011;1953;51.222;6.624;2023-10-08T07:41:19;16.83;;;6.70;;
3875;SDS011;1953;51.222;6.624;2023-10-08T07:46:03;14.47;;;6.60;;
3875;SDS011;1953;51.222;6.624;2023-10-08T07:50:46;13.40;;;6.60;;
3875;SDS011;1953;51.222;6.624;2023-10-08T07:55:29;13.60;;;7.37;;
3875;SDS011;1953;51.222;6.624;2023-10-08T08:00:13;12.90;;;7.10;;
3875;SDS011;1953;51.222;6.624;2023-10-08T08:05:05;14.60;;;7.33;;
3875;SDS011;1953;51.222;6.624;2023-10-08T08:09:48;21.10;;;6.70;;
3875;SDS011;1953;51.222;6.624;2023-10-08T08:14:32;14.10;;;7.47;;
3875;SDS011;1953;51.222;6.624;2023-10-08T08:19:17;16.33;;;7.60;;
3875;SDS011;1953;51.222;6.624;2023-10-08T08:24:06;10.63;;;6.70;;
3875;SDS011;1953;51.222;6.624;2023-10-08T08:28:50;23.40;;;7.80;;
3875;SDS011;1953;51.222;6.624;2023-10-08T08:33:32;13.37;;;6.80;;
3875;SDS011;1953;51.222;6.624;2023-10-08T08:38:33;17.10;;;6.60;;
3875;SDS011;1953;51.222;6.624;2023-10-08T08:43:17;18.30;;;6.53;;
3875;SDS011;1953;51.222;6.624;2023-10-08T08:48:01;25.60;;;7.77;;
3875;SDS011;1953;51.222;6.624;2023-10-08T08:52:45;15.23;;;8.07;;
3875;SDS011;1953;51.222;6.624;2023-10-08T08:57:28;23.27;;;8.77;;
3875;SDS011;1953;51.222;6.624;2023-10-08T09:02:12;14.60;;;7.40;;
3875;SDS011;1953;51.222;6.624;2023-10-08T09:06:56;14.87;;;7.93;;
3875;SDS011;1953;51.222;6.624;2023-10-08T09:11:39;19.77;;;9.40;;
3875;SDS011;1953;51.222;6.624;2023-10-08T09:16:23;18.73;;;9.20;;
3875;SDS011;1953;51.222;6.624;2023-10-08T09:21:11;20.30;;;9.50;;
3875;SDS011;1953;51.222;6.624;2023-10-08T09:25:55;20.10;;;10.23;;
3875;SDS011;1953;51.222;6.624;2023-10-08T09:30:43;26.43;;;11.40;;
3875;SDS011;1953;51.222;6.624;2023-10-08T09:35:26;29.73;;;11.60;;
3875;SDS011;1953;51.222;6.624;2023-10-08T09:40:11;23.40;;;10.83;;
3875;SDS011;1953;51.222;6.624;2023-10-08T09:45:01;28.60;;;12.50;;
3875;SDS011;1953;51.222;6.624;2023-10-08T09:49:48;31.87;;;15.40;;
3875;SDS011;1953;51.222;6.624;2023-10-08T09:54:38;50.93;;;20.00;;
3875;SDS011;1953;51.222;6.624;2023-10-08T09:59:29;43.57;;;18.83;;
3875;SDS011;1953;51.222;6.624;2023-10-08T10:04:21;42.20;;;17.37;;
3875;SDS011;1953;51.222;6.624;2023-10-08T10:09:05;35.17;;;17.97;;
3875;SDS011;1953;51.222;6.624;2023-10-08T10:13:57;35.07;;;16.60;;
3875;SDS011;1953;51.222;6.624;2023-10-08T10:18:44;40.07;;;15.57;;
3875;SDS011;1953;51.222;6.624;2023-10-08T10:23:34;46.93;;;16.97;;
3875;SDS011;1953;51.222;6.624;2023-10-08T10:28:21;44.17;;;17.30;;
3875;SDS011;1953;51.222;6.624;2023-10-08T10:33:04;43.40;;;17.03;;
3875;SDS011;1953;51.222;6.624;2023-10-08T10:37:48;44.23;;;17.60;;
3875;SDS011;1953;51.222;6.624;2023-10-08T10:42:33;41.23;;;16.20;;
3875;SDS011;1953;51.222;6.624;2023-10-08T10:47:23;44.43;;;18.10;;
3875;SDS011;1953;51.222;6.624;2023-10-08T10:52:08;45.50;;;18.77;;
3875;SDS011;1953;51.222;6.624;2023-10-08T10:57:00;44.33;;;19.40;;
3875;SDS011;1953;51.222;6.624;2023-10-08T11:01:46;47.73;;;18.87;;
3875;SDS011;1953;51.222;6.624;2023-10-08T11:06:33;52.30;;;18.30;;
3875;SDS011;1953;51.222;6.624;2023-10-08T11:11:18;47.10;;;18.70;;
3875;SDS011;1953;51.222;6.624;2023-10-08T11:16:09;38.93;;;18.77;;
3875;SDS011;1953;51.222;6.624;2023-10-08T11:20:58;38.07;;;17.93;;
3875;SDS011;1953;51.222;6.624;2023-10-08T11:25:56;36.53;;;18.53;;
3875;SDS011;1953;51.222;6.624;2023-10-08T11:30:43;44.47;;;18.67;;
3875;SDS011;1953;51.222;6.624;2023-10-08T11:35:29;47.87;;;18.83;;
3875;SDS011;1953;51.222;6.624;2023-10-08T11:40:21;45.20;;;19.37;;
3875;SDS011;1953;51.222;6.624;2023-10-08T11:45:09;43.83;;;21.50;;
3875;SDS011;1953;51.222;6.624;2023-10-08T11:50:05;42.10;;;20.53;;
3875;SDS011;1953;51.222;6.624;2023-10-08T11:54:52;41.77;;;20.20;;
3875;SDS011;1953;51.222;6.624;2023-10-08T11:59:35;43.43;;;21.40;;
3875;SDS011;1953;51.222;6.624;2023-10-08T12:04:20;51.47;;;22.90;;
3875;SDS011;1953;51.222;6.624;2023-10-08T12:09:03;50.10;;;21.93;;
3875;SDS011;1953;51.222;6.624;2023-10-08T12:13:54;41.97;;;20.60;;
3875;SDS011;1953;51.222;6.624;2023-10-08T12:19:57;45.77;;;22.53;;
3875;SDS011;1953;51.222;6.624;2023-10-08T12:24:52;48.77;;;22.97;;
3875;SDS011;1953;51.222;6.624;2023-10-08T12:29:35;49.10;;;22.67;;
3875;SDS011;1953;51.222;6.624;2023-10-08T12:34:19;45.90;;;24.00;;
3875;SDS011;1953;51.222;6.624;2023-10-08T12:39:05;45.00;;;24.63;;
3875;SDS011;1953;51.222;6.624;2023-10-08T12:43:52;43.93;;;23.00;;
3875;SDS011;1953;51.222;6.624;2023-10-08T12:48:35;42.43;;;21.30;;
3875;SDS011;1953;51.222;6.624;2023-10-08T12:53:19;42.20;;;20.17;;
3875;SDS011;1953;51.222;6.624;2023-10-08T12:58:09;35.47;;;19.87;;
3875;SDS011;1953;51.222;6.624;2023-10-08T13:02:51;42.60;;;20.80;;
3875;SDS011;1953;51.222;6.624;2023-10-08T13:07:35;38.60;;;19.00;;
3875;SDS011;1953;51.222;6.624;2023-10-08T13:12:17;41.03;;;17.83;;
3875;SDS011;1953;51.222;6.624;2023-10-08T13:17:01;35.53;;;17.47;;
3875;SDS011;1953;51.222;6.624;2023-10-08T13:21:43;27.73;;;16.13;;
3875;SDS011;1953;51.222;6.624;2023-10-08T13:26:26;30.73;;;16.67;;
3875;SDS011;1953;51.222;6.624;2023-10-08T13:31:11;37.23;;;17.37;;
3875;SDS011;1953;51.222;6.624;2023-10-08T13:35:58;50.90;;;20.20;;
3875;SDS011;1953;51.222;6.624;2023-10-08T13:40:41;36.10;;;18.27;;
3875;SDS011;1953;51.222;6.624;2023-10-08T13:45:42;36.33;;;20.57;;
3875;SDS011;1953;51.222;6.624;2023-10-08T13:50:25;37.63;;;19.60;;
3875;SDS011;1953;51.222;6.624;2023-10-08T13:55:12;39.23;;;17.50;;
3875;SDS011;1953;51.222;6.624;2023-10-08T13:59:57;35.17;;;17.17;;
3875;SDS011;1953;51.222;6.624;2023-10-08T14:04:42;37.37;;;17.97;;
3875;SDS011;1953;51.222;6.624;2023-10-08T14:09:25;38.30;;;16.73;;
3875;SDS011;1953;51.222;6.624;2023-10-08T14:14:18;31.57;;;15.90;;
3875;SDS011;1953;51.222;6.624;2023-10-08T14:19:04;35.30;;;17.00;;
3875;SDS011;1953;51.222;6.624;2023-10-08T14:23:47;35.33;;;16.67;;
3875;SDS011;1953;51.222;6.624;2023-10-08T14:28:29;28.53;;;16.30;;
3875;SDS011;1953;51.222;6.624;2023-10-08T14:33:24;29.43;;;16.70;;
3875;SDS011;1953;51.222;6.624;2023-10-08T14:38:11;25.93;;;15.40;;
3875;SDS011;1953;51.222;6.624;2023-10-08T14:43:11;34.93;;;16.00;;
3875;SDS011;1953;51.222;6.624;2023-10-08T14:47:56;37.30;;;17.40;;
3875;SDS011;1953;51.222;6.624;2023-10-08T14:52:41;30.80;;;15.20;;
3875;SDS011;1953;51.222;6.624;2023-10-08T14:57:23;29.63;;;15.17;;
3875;SDS011;1953;51.222;6.624;2023-10-08T15:02:07;29.13;;;14.37;;
3875;SDS011;1953;51.222;6.624;2023-10-08T15:06:51;30.80;;;14.60;;
3875;SDS011;1953;51.222;6.624;2023-10-08T15:11:36;27.87;;;13.30;;
3875;SDS011;1953;51.222;6.624;2023-10-08T15:16:18;23.40;;;11.37;;
3875;SDS011;1953;51.222;6.624;2023-10-08T15:21:03;19.40;;;10.67;;
3875;SDS011;1953;51.222;6.624;2023-10-08T15:25:45;21.87;;;9.80;;
3875;SDS011;1953;51.222;6.624;2023-10-08T15:30:30;14.90;;;8.90;;
3875;SDS011;1953;51.222;6.624;2023-10-08T15:35:13;16.87;;;8.77;;
3875;SDS011;1953;51.222;6.624;2023-10-08T15:40:00;25.20;;;9.43;;
3875;SDS011;1953;51.222;6.624;2023-10-08T15:44:47;17.70;;;8.33;;
3875;SDS011;1953;51.222;6.624;2023-10-08T15:49:30;16.57;;;9.00;;
3875;SDS011;1953;51.222;6.624;2023-10-08T15:54:13;13.63;;;7.80;;
3875;SDS011;1953;51.222;6.624;2023-10-08T15:58:58;17.30;;;9.30;;
3875;SDS011;1953;51.222;6.624;2023-10-08T16:03:41;16.97;;;9.00;;
3875;SDS011;1953;51.222;6.624;2023-10-08T16:08:25;21.87;;;9.40;;
3875;SDS011;1953;51.222;6.624;2023-10-08T16:13:07;17.13;;;8.93;;
3875;SDS011;1953;51.222;6.624;2023-10-08T16:17:50;16.77;;;9.60;;
3875;SDS011;1953;51.222;6.624;2023-10-08T16:22:33;18.47;;;9.20;;
3875;SDS011;1953;51.222;6.624;2023-10-08T16:27:17;16.53;;;8.70;;
3875;SDS011;1953;51.222;6.624;2023-10-08T16:32:00;15.37;;;8.57;;
3875;SDS011;1953;51.222;6.624;2023-10-08T16:36:43;17.13;;;9.40;;
3875;SDS011;1953;51.222;6.624;2023-10-08T16:41:26;16.60;;;8.80;;
3875;SDS011;1953;51.222;6.624;2023-10-08T16:46:10;14.23;;;8.80;;
3875;SDS011;1953;51.222;6.624;2023-10-08T16:50:52;16.13;;;9.10;;
3875;SDS011;1953;51.222;6.624;2023-10-08T16:55:35;29.63;;;9.10;;
3875;SDS011;1953;51.222;6.624;2023-10-08T17:00:18;16.80;;;9.77;;
3875;SDS011;1953;51.222;6.624;2023-10-08T17:05:03;16.60;;;9.70;;
3875;SDS011;1953;51.222;6.624;2023-10-08T17:09:46;20.83;;;10.27;;
3875;SDS011;1953;51.222;6.624;2023-10-08T17:14:29;22.33;;;9.87;;
3875;SDS011;1953;51.222;6.624;2023-10-08T17:19:11;17.53;;;9.63;;
3875;SDS011;1953;51.222;6.624;2023-10-08T17:23:55;17.97;;;9.00;;
3875;SDS011;1953;51.222;6.624;2023-10-08T17:28:38;20.83;;;8.87;;
3875;SDS011;1953;51.222;6.624;2023-10-08T17:33:22;21.23;;;9.27;;
3875;SDS011;1953;51.222;6.624;2023-10-08T17:38:04;15.03;;;9.00;;
3875;SDS011;1953;51.222;6.624;2023-10-08T17:42:48;14.63;;;8.47;;
3875;SDS011;1953;51.222;6.624;2023-10-08T17:47:31;21.30;;;9.93;;
3875;SDS011;1953;51.222;6.624;2023-10-08T17:52:14;22.27;;;10.17;;
3875;SDS011;1953;51.222;6.624;2023-10-08T17:56:56;20.90;;;9.97;;
3875;SDS011;1953;51.222;6.624;2023-10-08T18:01:40;24.70;;;9.30;;
3875;SDS011;1953;51.222;6.624;2023-10-08T18:06:25;17.43;;;9.43;;
3875;SDS011;1953;51.222;6.624;2023-10-08T18:11:08;17.93;;;9.77;;
3875;SDS011;1953;51.222;6.624;2023-10-08T18:15:50;14.87;;;8.77;;
3875;SDS011;1953;51.222;6.624;2023-10-08T18:20:34;23.73;;;10.53;;
3875;SDS011;1953;51.222;6.624;2023-10-08T18:25:24;17.27;;;9.23;;
3875;SDS011;1953;51.222;6.624;2023-10-08T18:30:10;21.83;;;9.47;;
3875;SDS011;1953;51.222;6.624;2023-10-08T18:34:54;24.10;;;13.87;;
3875;SDS011;1953;51.222;6.624;2023-10-08T18:39:38;20.90;;;13.23;;
3875;SDS011;1953;51.222;6.624;2023-10-08T18:44:23;21.33;;;10.87;;
3875;SDS011;1953;51.222;6.624;2023-10-08T18:49:06;23.13;;;11.40;;
3875;SDS011;1953;51.222;6.624;2023-10-08T18:53:49;25.53;;;11.40;;
3875;SDS011;1953;51.222;6.624;2023-10-08T18:58:33;19.70;;;10.73;;
3875;SDS011;1953;51.222;6.624;2023-10-08T19:03:16;19.47;;;11.20;;
3875;SDS011;1953;51.222;6.624;2023-10-08T19:07:59;19.20;;;11.20;;
3875;SDS011;1953;51.222;6.624;2023-10-08T19:12:41;18.93;;;10.93;;
3875;SDS011;1953;51.222;6.624;2023-10-08T19:17:26;21.43;;;10.40;;
3875;SDS011;1953;51.222;6.624;2023-10-08T19:22:10;20.43;;;10.50;;
3875;SDS011;1953;51.222;6.624;2023-10-08T19:26:52;18.90;;;11.20;;
3875;SDS011;1953;51.222;6.624;2023-10-08T19:31:36;21.07;;;12.30;;
3875;SDS011;1953;51.222;6.624;2023-10-08T19:36:20;27.53;;;11.77;;
3875;SDS011;1953;51.222;6.624;2023-10-08T19:41:03;20.77;;;11.13;;
3875;SDS011;1953;51.222;6.624;2023-10-08T19:45:46;24.33;;;10.70;;
3875;SDS011;1953;51.222;6.624;2023-10-08T19:50:31;22.33;;;11.53;;
3875;SDS011;1953;51.222;6.624;2023-10-08T19:55:16;25.67;;;11.40;;
3875;SDS011;1953;51.222;6.624;2023-10-08T20:00:00;25.10;;;11.50;;
3875;SDS011;1953;51.222;6.624;2023-10-08T20:04:44;21.10;;;11.23;;
3875;SDS011;1953;51.222;6.624;2023-10-08T20:09:27;25.60;;;11.17;;
3875;SDS011;1953;51.222;6.624;2023-10-08T20:14:11;22.07;;;11.27;;
3875;SDS011;1953;51.222;6.624;2023-10-08T20:18:53;23.30;;;12.00;;
3875;SDS011;1953;51.222;6.624;2023-10-08T20:23:37;23.47;;;12.40;;
3875;SDS011;1953;51.222;6.624;2023-10-08T20:28:20;22.30;;;11.40;;
3875;SDS011;1953;51.222;6.624;2023-10-08T20:33:05;25.40;;;12.80;;
3875;SDS011;1953;51.222;6.624;2023-10-08T20:37:50;26.13;;;12.80;;
3875;SDS011;1953;51.222;6.624;2023-10-08T20:42:35;29.47;;;12.70;;
3875;SDS011;1953;51.222;6.624;2023-10-08T20:47:17;23.30;;;13.33;;
3875;SDS011;1953;51.222;6.624;2023-10-08T20:52:01;26.60;;;13.30;;
3875;SDS011;1953;51.222;6.624;2023-10-08T20:56:44;30.10;;;14.00;;
3875;SDS011;1953;51.222;6.624;2023-10-08T21:01:29;25.83;;;13.53;;
3875;SDS011;1953;51.222;6.624;2023-10-08T21:06:20;29.90;;;13.83;;
3875;SDS011;1953;51.222;6.624;2023-10-08T21:11:03;25.73;;;14.07;;
3875;SDS011;1953;51.222;6.624;2023-10-08T21:15:48;43.37;;;18.57;;
3875;SDS011;1953;51.222;6.624;2023-10-08T21:20:31;33.10;;;18.00;;
3875;SDS011;1953;51.222;6.624;2023-10-08T21:25:14;41.70;;;17.87;;
3875;SDS011;1953;51.222;6.624;2023-10-08T21:29:59;37.17;;;18.30;;
3875;SDS011;1953;51.222;6.624;2023-10-08T21:34:42;31.90;;;17.47;;
3875;SDS011;1953;51.222;6.624;2023-10-08T21:39:28;36.37;;;19.17;;
3875;SDS011;1953;51.222;6.624;2023-10-08T21:44:11;41.20;;;19.03;;
3875;SDS011;1953;51.222;6.624;2023-10-08T21:48:55;42.33;;;18.47;;
3875;SDS011;1953;51.222;6.624;2023-10-08T21:53:38;44.47;;;20.40;;
3875;SDS011;1953;51.222;6.624;2023-10-08T21:58:20;42.90;;;20.53;;
3875;SDS011;1953;51.222;6.624;2023-10-08T22:03:03;44.17;;;22.40;;
3875;SDS011;1953;51.222;6.624;2023-10-08T22:07:49;40.10;;;22.10;;
3875;SDS011;1953;51.222;6.624;2023-10-08T22:12:32;46.23;;;23.30;;
3875;SDS011;1953;51.222;6.624;2023-10-08T22:17:14;52.30;;;22.83;;
3875;SDS011;1953;51.222;6.624;2023-10-08T22:21:57;47.33;;;23.37;;
3875;SDS011;1953;51.222;6.624;2023-10-08T22:26:41;56.53;;;25.40;;
3875;SDS011;1953;51.222;6.624;2023-10-08T22:31:26;49.90;;;24.33;;
3875;SDS011;1953;51.222;6.624;2023-10-08T22:36:08;53.73;;;22.80;;
3875;SDS011;1953;51.222;6.624;2023-10-08T22:40:54;46.47;;;21.50;;
3875;SDS011;1953;51.222;6.624;2023-10-08T22:45:56;48.37;;;21.43;;
3875;SDS011;1953;51.222;6.624;2023-10-08T22:50:42;40.43;;;20.63;;
3875;SDS011;1953;51.222;6.624;2023-10-08T22:55:35;44.93;;;21.30;;
3875;SDS011;1953;51.222;6.624;2023-10-08T23:00:19;41.60;;;22.07;;
3875;SDS011;1953;51.222;6.624;2023-10-08T23:05:08;47.63;;;22.20;;
3875;SDS011;1953;51.222;6.624;2023-10-08T23:09:51;45.13;;;22.43;;
3875;SDS011;1953;51.222;6.624;2023-10-08T23:14:33;46.83;;;22.70;;
3875;SDS011;1953;51.222;6.624;2023-10-08T23:19:17;46.43;;;22.50;;
3875;SDS011;1953;51.222;6.624;2023-10-08T23:24:03;49.20;;;22.60;;
3875;SDS011;1953;51.222;6.624;2023-10-08T23:28:47;46.67;;;22.83;;
3875;SDS011;1953;51.222;6.624;2023-10-08T23:33:30;38.47;;;21.40;;
3875;SDS011;1953;51.222;6.624;2023-10-08T23:38:14;44.37;;;22.50;;
3875;SDS011;1953;51.222;6.624;2023-10-08T23:43:07;45.13;;;21.70;;
3875;SDS011;1953;51.222;6.624;2023-10-08T23:47:50;46.37;;;21.40;;
3875;SDS011;1953;51.222;6.624;2023-10-08T23:52:32;41.87;;;20.80;;
3875;SDS011;1953;51.222;6.624;2023-10-08T23:57:17;37.17;;;20.27;;
